Opal Express — V7KB8 — position and weather

sailwx.info

Track history (hours):
 
Tides and Currents Weather Stations Pressure Air Temp Water Temp Dewpoint Dewpoint Depression Visibility Wind Speed Wind Dir Waves Ship Positions

Opal Express

Last reported at 2015-Jan-26 17:32 UTC. Time now 2015-Jan-27 16:52 UTC.
Position N 43°54' W 003°30'.

Length 179 m; draft 6.8 m.

Type: Tanker. MMSI: 538002500.

Date/timePositionNaut miles runAvg speedWind from/ knotsBaromVisibWave heightAir tempDewpointWater temp
2015-Jan-26 17:32N 43°54' W 003°30'1313.1
2015-Jan-26 16:33N 43°43' W 003°22'1313.0
2015-Jan-26 15:33N 43°31' W 003°13'9 9.5
2015-Jan-26 14:33N 43°23' W 003°08'0 0.0
2015-Jan-26 13:33N 43°23' W 003°08'0 0.0
2015-Jan-26 12:33N 43°23' W 003°08'  
2015-Jan-20 10:10N 40°50' W 027°32'812.9
2015-Jan-20 09:33N 40°48' W 027°42'1813.0
2015-Jan-20 08:09N 40°43' W 028°06'1012.8
2015-Jan-20 07:21N 40°41' W 028°19'1012.9
2015-Jan-20 06:33N 40°38' W 028°32'1412.9
2015-Jan-20 05:27N 40°34' W 028°50'7013.0
2015-Jan-20 00:06N 40°17' W 030°19'  
Track history (hours):
 
Tides and Currents Weather Stations Pressure Air Temp Water Temp Dewpoint Dewpoint Depression Visibility Wind Speed Wind Dir Waves Ship Positions

Opal Express

Last reported at 2015-Jan-26 17:32 UTC. Time now 2015-Jan-27 16:52 UTC.
Position N 43°54' W 003°30'.

Length 179 m; draft 6.8 m.

Type: Tanker. MMSI: 538002500.

Date/timePositionNaut miles runAvg speedWind from/ knotsBaromVisibWave heightAir tempDewpointWater temp
2015-Jan-26 17:32N 43°54' W 003°30'1313.1
2015-Jan-26 16:33N 43°43' W 003°22'1313.0
2015-Jan-26 15:33N 43°31' W 003°13'9 9.5
2015-Jan-26 14:33N 43°23' W 003°08'0 0.0
2015-Jan-26 13:33N 43°23' W 003°08'0 0.0
2015-Jan-26 12:33N 43°23' W 003°08'  
2015-Jan-20 10:10N 40°50' W 027°32'812.9
2015-Jan-20 09:33N 40°48' W 027°42'1813.0
2015-Jan-20 08:09N 40°43' W 028°06'1012.8
2015-Jan-20 07:21N 40°41' W 028°19'1012.9
2015-Jan-20 06:33N 40°38' W 028°32'1412.9
2015-Jan-20 05:27N 40°34' W 028°50'7013.0
2015-Jan-20 00:06N 40°17' W 030°19'  

Dump ship's entire track history